createdAt,value
2023-03-21T00:01:59.366Z,36
2023-03-21T00:04:38.088Z,32
2023-03-21T00:07:04.753Z,37
2023-03-21T00:09:39.538Z,36
2023-03-21T00:12:16.567Z,36
2023-03-21T00:14:50.735Z,36
2023-03-21T00:17:21.094Z,38
2023-03-21T00:19:52.327Z,36
2023-03-21T00:22:24.113Z,36
2023-03-21T00:24:55.162Z,36
2023-03-21T00:27:47.469Z,36
2023-03-21T00:29:59.239Z,36
2023-03-21T00:32:30.167Z,36
2023-03-21T00:35:18.658Z,40
2023-03-21T00:37:39.333Z,44
2023-03-21T00:40:19.633Z,44
2023-03-21T00:42:41.621Z,48
2023-03-21T00:45:17.533Z,48
2023-03-21T00:47:48.961Z,42
2023-03-21T00:50:21.592Z,37
2023-03-21T00:52:56.018Z,39
2023-03-21T00:55:29.466Z,40
2023-03-21T00:58:02.526Z,39
2023-03-21T01:00:34.391Z,38
2023-03-21T01:03:23.548Z,36
2023-03-21T01:05:47.758Z,36
2023-03-21T01:08:31.339Z,36
2023-03-21T01:11:00.166Z,36
2023-03-21T01:13:44.132Z,36
2023-03-21T01:16:10.858Z,32
2023-03-21T01:18:42.070Z,36
2023-03-21T01:21:12.731Z,36
2023-03-21T01:23:44.299Z,36
2023-03-21T01:26:19.227Z,35
2023-03-21T01:28:51.347Z,36
2023-03-21T01:31:22.759Z,32
2023-03-21T01:33:55.350Z,32
2023-03-21T01:36:27.026Z,36
2023-03-21T01:38:58.140Z,35
2023-03-21T01:41:42.276Z,36
2023-03-21T01:44:04.871Z,36
2023-03-21T01:46:54.308Z,36
2023-03-21T01:49:10.976Z,36
2023-03-21T01:51:42.384Z,36
2023-03-21T01:54:14.625Z,36
2023-03-21T01:56:48.297Z,36
2023-03-21T01:59:19.674Z,36
2023-03-21T02:01:59.676Z,36
2023-03-21T02:04:31.030Z,36
2023-03-21T02:07:01.862Z,36
2023-03-21T02:09:32.996Z,36
2023-03-21T02:12:08.189Z,36
2023-03-21T02:14:41.711Z,36
2023-03-21T02:17:12.588Z,36
2023-03-21T02:19:52.598Z,36
2023-03-21T02:22:15.456Z,36
2023-03-21T02:24:54.473Z,36
2023-03-21T02:27:19.006Z,36
2023-03-21T02:29:50.915Z,36
2023-03-21T02:32:34.839Z,36
2023-03-21T02:35:00.842Z,36
2023-03-21T02:37:38.232Z,36
2023-03-21T02:40:07.818Z,36
2023-03-21T02:42:39.025Z,36
2023-03-21T02:45:08.020Z,36
2023-03-21T02:47:39.366Z,36
2023-03-21T02:50:10.534Z,36
2023-03-21T02:52:40.021Z,38
2023-03-21T02:55:17.307Z,36
2023-03-21T02:57:52.657Z,36
2023-03-21T03:00:24.153Z,36
2023-03-21T03:03:06.530Z,36
2023-03-21T03:05:26.973Z,36
2023-03-21T03:07:57.606Z,40
2023-03-21T03:10:28.867Z,38
2023-03-21T03:13:00.529Z,39
2023-03-21T03:15:32.386Z,36
2023-03-21T03:18:02.724Z,36
2023-03-21T03:20:33.608Z,36
2023-03-21T03:23:05.499Z,36
2023-03-21T03:25:43.122Z,36
2023-03-21T03:28:11.772Z,36
2023-03-21T03:30:51.192Z,36
2023-03-21T03:33:18.731Z,36
2023-03-21T03:35:58.996Z,36
2023-03-21T03:38:20.837Z,36
2023-03-21T03:40:51.713Z,36
2023-03-21T03:43:23.200Z,36
2023-03-21T03:45:54.346Z,36
2023-03-21T03:48:25.710Z,36
2023-03-21T03:50:56.760Z,36
2023-03-21T03:53:32.441Z,37
2023-03-21T03:56:03.252Z,36
2023-03-21T03:58:44.782Z,36
2023-03-21T04:01:08.869Z,36
2023-03-21T04:03:48.335Z,40
2023-03-21T04:06:17.742Z,36
2023-03-21T04:08:48.501Z,36
2023-03-21T04:11:21.258Z,37
2023-03-21T04:13:52.076Z,36
2023-03-21T04:16:23.565Z,36
2023-03-21T04:19:00.378Z,36
2023-03-21T04:21:31.209Z,36
2023-03-21T04:24:02.074Z,36
2023-03-21T04:26:33.105Z,36
2023-03-21T04:29:04.187Z,36
2023-03-21T04:31:38.809Z,36
2023-03-21T04:34:09.340Z,36
2023-03-21T04:36:43.758Z,36
2023-03-21T04:39:24.812Z,37
2023-03-21T04:41:56.784Z,36
2023-03-21T04:44:30.076Z,36
2023-03-21T04:47:01.628Z,36
2023-03-21T04:49:33.186Z,36
2023-03-21T04:52:05.400Z,36
2023-03-21T04:54:36.670Z,36
2023-03-21T04:57:10.069Z,36
2023-03-21T04:59:40.958Z,36
2023-03-21T05:02:11.419Z,40
2023-03-21T05:04:42.170Z,36
2023-03-21T05:07:12.801Z,37
2023-03-21T05:09:43.781Z,36
2023-03-21T05:12:14.985Z,36
2023-03-21T05:14:49.278Z,40
2023-03-21T05:17:19.987Z,40
2023-03-21T05:19:51.850Z,39
2023-03-21T05:22:22.859Z,40
2023-03-21T05:24:53.929Z,36
2023-03-21T05:27:25.016Z,40
2023-03-21T05:29:56.645Z,39
2023-03-21T05:32:27.473Z,37
2023-03-21T05:34:58.192Z,40
2023-03-21T05:37:28.912Z,40
2023-03-21T05:39:59.433Z,36
2023-03-21T05:42:30.313Z,37
2023-03-21T05:45:01.057Z,38
2023-03-21T05:47:32.125Z,40
2023-03-21T05:50:03.055Z,40
2023-03-21T05:52:33.513Z,37
2023-03-21T05:55:04.368Z,36
2023-03-21T05:57:35.603Z,37
2023-03-21T06:00:06.767Z,36
2023-03-21T06:02:37.202Z,36
2023-03-21T06:05:07.788Z,40
2023-03-21T06:07:38.572Z,40
2023-03-21T06:10:09.166Z,40
2023-03-21T06:12:40.886Z,40
2023-03-21T06:15:11.976Z,40
2023-03-21T06:17:42.810Z,40
2023-03-21T06:20:13.940Z,37
2023-03-21T06:22:44.562Z,36
2023-03-21T06:25:15.448Z,40
2023-03-21T06:27:47.712Z,36
2023-03-21T06:30:22.130Z,36
2023-03-21T06:32:52.827Z,36
2023-03-21T06:35:23.717Z,36
2023-03-21T06:37:54.121Z,36
2023-03-21T06:40:26.693Z,36
2023-03-21T06:42:58.647Z,35
2023-03-21T06:45:29.138Z,32
2023-03-21T06:47:59.649Z,32
2023-03-21T06:50:30.587Z,32
2023-03-21T06:53:01.915Z,32
2023-03-21T06:55:32.964Z,32
2023-03-21T06:58:03.806Z,32
2023-03-21T07:00:35.127Z,32
2023-03-21T07:03:11.264Z,32
2023-03-21T07:05:45.216Z,32
2023-03-21T07:08:19.548Z,32
2023-03-21T07:10:50.467Z,32
2023-03-21T07:13:24.764Z,32
2023-03-21T07:15:55.290Z,32
2023-03-21T07:18:27.550Z,32
2023-03-21T07:21:04.347Z,28
2023-03-21T07:23:36.214Z,32
2023-03-21T07:26:07.142Z,32
2023-03-21T07:28:39.394Z,32
2023-03-21T07:31:10.711Z,32
2023-03-21T07:33:42.395Z,32
2023-03-21T07:36:13.023Z,32
2023-03-21T07:38:46.073Z,32
2023-03-21T07:43:49.009Z,32
2023-03-21T07:46:19.732Z,32
2023-03-21T07:48:50.098Z,32
2023-03-21T07:51:20.713Z,32
2023-03-21T07:53:54.226Z,32
2023-03-21T07:56:27.733Z,32
2023-03-21T07:59:00.214Z,32
2023-03-21T08:01:35.001Z,32
2023-03-21T08:04:05.884Z,32
2023-03-21T08:06:36.328Z,32
2023-03-21T08:09:09.665Z,28
2023-03-21T08:11:40.401Z,28
2023-03-21T08:14:10.912Z,32
2023-03-21T08:16:41.738Z,32
2023-03-21T08:19:13.086Z,28
2023-03-21T08:21:43.847Z,28
2023-03-21T08:24:14.367Z,28
2023-03-21T08:26:45.400Z,30
2023-03-21T08:29:19.241Z,28
2023-03-21T08:31:50.807Z,32
2023-03-21T08:34:21.331Z,28
2023-03-21T08:36:52.128Z,28
2023-03-21T08:39:24.522Z,28
2023-03-21T08:41:58.392Z,32
2023-03-21T08:44:30.431Z,28
2023-03-21T08:47:00.512Z,28
2023-03-21T08:49:30.826Z,28
2023-03-21T08:52:01.412Z,28
2023-03-21T08:54:33.921Z,28
2023-03-21T08:57:04.884Z,28
2023-03-21T08:59:35.218Z,28
2023-03-21T09:02:05.375Z,28
2023-03-21T09:04:38.448Z,28
2023-03-21T09:07:11.612Z,28
2023-03-21T09:09:41.627Z,28
2023-03-21T09:12:11.642Z,30
2023-03-21T09:14:42.066Z,28
2023-03-21T09:17:14.240Z,28
2023-03-21T09:19:43.294Z,25
2023-03-21T09:22:14.238Z,28
2023-03-21T09:24:44.843Z,27
2023-03-21T09:29:53.693Z,24
2023-03-21T09:32:23.260Z,28
2023-03-21T09:34:58.084Z,28
2023-03-21T09:37:28.088Z,28
2023-03-21T09:39:56.949Z,28
2023-03-21T09:42:31.494Z,28
2023-03-21T09:45:03.176Z,24
2023-03-21T09:47:44.918Z,25
2023-03-21T09:50:17.240Z,28
2023-03-21T09:52:48.449Z,28
2023-03-21T09:55:23.393Z,26
2023-03-21T09:57:58.477Z,24
2023-03-21T10:00:31.006Z,24
2023-03-21T10:03:05.925Z,28
2023-03-21T10:05:36.996Z,28
2023-03-21T10:08:13.630Z,25
2023-03-21T10:10:45.042Z,24
2023-03-21T10:13:14.623Z,24
2023-03-21T10:15:45.328Z,24
2023-03-21T10:18:27.210Z,24
2023-03-21T10:20:59.407Z,24
2023-03-21T10:23:30.358Z,26
2023-03-21T10:26:01.789Z,28
2023-03-21T10:28:42.538Z,28
2023-03-21T10:31:07.819Z,25
2023-03-21T10:33:38.270Z,24
2023-03-21T10:36:09.841Z,24
2023-03-21T10:38:41.878Z,28
2023-03-21T10:41:15.777Z,24
2023-03-21T10:43:50.293Z,24
2023-03-21T10:46:21.409Z,24
2023-03-21T10:48:55.446Z,24
2023-03-21T10:51:25.838Z,24
2023-03-21T10:53:58.636Z,24
2023-03-21T10:56:29.071Z,28
2023-03-21T10:59:01.602Z,24
2023-03-21T11:01:32.141Z,24
2023-03-21T11:04:03.043Z,24
2023-03-21T11:06:40.305Z,24
2023-03-21T11:09:11.299Z,25
2023-03-21T11:11:43.466Z,24
2023-03-21T11:14:13.728Z,26
2023-03-21T11:16:46.006Z,24
2023-03-21T11:19:16.584Z,24
2023-03-21T11:21:49.218Z,28
2023-03-21T11:24:20.037Z,24
2023-03-21T11:26:50.191Z,24
2023-03-21T11:29:20.666Z,24
2023-03-21T11:31:51.535Z,24
2023-03-21T11:34:26.181Z,24
2023-03-21T11:36:56.856Z,23
2023-03-21T11:39:28.102Z,24
2023-03-21T11:41:58.477Z,24
2023-03-21T11:44:28.996Z,23
2023-03-21T11:49:30.537Z,24
2023-03-21T11:52:01.964Z,23
2023-03-21T11:54:32.318Z,20
2023-03-21T11:57:02.600Z,20
2023-03-21T11:59:32.987Z,20
2023-03-21T12:02:03.776Z,20
2023-03-21T12:04:34.425Z,20
2023-03-21T12:07:11.074Z,20
2023-03-21T12:09:44.392Z,24
2023-03-21T12:12:14.480Z,24
2023-03-21T12:14:47.913Z,24
2023-03-21T12:17:18.018Z,24
2023-03-21T12:19:48.108Z,24
2023-03-21T12:22:23.055Z,24
2023-03-21T12:24:54.205Z,24
2023-03-21T12:27:24.554Z,24
2023-03-21T12:29:55.110Z,20
2023-03-21T12:32:35.679Z,20
2023-03-21T12:35:08.529Z,20
2023-03-21T12:37:38.666Z,20
2023-03-21T12:42:45.980Z,20
2023-03-21T12:45:17.891Z,20
2023-03-21T12:47:49.774Z,20
2023-03-21T12:50:20.696Z,20
2023-03-21T12:52:51.418Z,20
2023-03-21T12:55:21.727Z,20
2023-03-21T12:57:57.345Z,20
2023-03-21T13:00:23.167Z,20
2023-03-21T13:02:53.837Z,20
2023-03-21T13:05:24.795Z,20
2023-03-21T13:07:54.724Z,23
2023-03-21T13:10:25.487Z,20
2023-03-21T13:12:55.757Z,20
2023-03-21T13:15:27.158Z,20
2023-03-21T13:17:58.277Z,20
2023-03-21T13:20:30.724Z,20
2023-03-21T13:23:01.772Z,20
2023-03-21T13:25:32.013Z,20
2023-03-21T13:28:07.100Z,20
2023-03-21T13:30:37.753Z,20
2023-03-21T13:33:08.033Z,19
2023-03-21T13:35:39.654Z,16
2023-03-21T13:38:10.307Z,16
2023-03-21T13:40:41.337Z,20
2023-03-21T13:43:13.870Z,20
2023-03-21T13:45:45.813Z,20
2023-03-21T13:48:16.550Z,20
2023-03-21T13:50:48.307Z,20
2023-03-21T13:53:18.880Z,20
2023-03-21T13:55:49.693Z,20
2023-03-21T13:58:23.434Z,20
2023-03-21T14:00:55.414Z,20
2023-03-21T14:03:26.052Z,20
2023-03-21T14:05:57.212Z,20
2023-03-21T14:08:37.036Z,20
2023-03-21T14:10:59.386Z,20
2023-03-21T14:13:33.037Z,20
2023-03-21T14:16:03.609Z,20
2023-03-21T14:18:52.691Z,20
2023-03-21T14:21:09.351Z,20
2023-03-21T14:23:41.452Z,17
2023-03-21T14:26:13.925Z,20
2023-03-21T14:28:44.158Z,19
2023-03-21T14:31:15.240Z,18
2023-03-21T14:33:47.106Z,21
2023-03-21T14:36:19.517Z,20
2023-03-21T14:38:49.580Z,20
2023-03-21T14:41:20.364Z,20
2023-03-21T14:43:52.143Z,20
2023-03-21T14:46:22.821Z,20
2023-03-21T14:48:53.466Z,20
2023-03-21T14:51:35.901Z,20
2023-03-21T14:54:07.335Z,19
2023-03-21T14:56:41.107Z,20
2023-03-21T14:59:14.191Z,20
2023-03-21T15:01:44.531Z,20
2023-03-21T15:04:15.143Z,20
2023-03-21T15:06:46.029Z,20
2023-03-21T15:09:16.744Z,19
2023-03-21T15:11:51.095Z,20
2023-03-21T15:14:21.430Z,16
2023-03-21T15:16:53.632Z,16
2023-03-21T15:19:24.807Z,18
2023-03-21T15:21:56.040Z,17
2023-03-21T15:24:27.730Z,20
2023-03-21T15:27:00.419Z,20
2023-03-21T15:29:33.132Z,20
2023-03-21T15:32:03.197Z,20
2023-03-21T15:34:33.660Z,19
2023-03-21T15:37:06.861Z,19
2023-03-21T15:39:38.942Z,16
2023-03-21T15:42:08.945Z,18
2023-03-21T15:44:40.968Z,20
2023-03-21T15:47:12.193Z,16
2023-03-21T15:49:43.432Z,16
2023-03-21T15:52:17.209Z,16
2023-03-21T15:54:48.799Z,16
2023-03-21T15:57:19.305Z,18
2023-03-21T15:59:50.803Z,20
2023-03-21T16:02:20.962Z,20
2023-03-21T16:04:51.422Z,20
2023-03-21T16:07:24.086Z,20
2023-03-21T16:09:54.358Z,20
2023-03-21T16:12:24.937Z,23
2023-03-21T16:14:55.590Z,24
2023-03-21T16:17:28.345Z,24
2023-03-21T16:20:00.520Z,23
2023-03-21T16:22:31.020Z,24
2023-03-21T16:25:03.220Z,24
2023-03-21T16:27:33.495Z,24
2023-03-21T16:30:05.912Z,24
2023-03-21T16:35:22.352Z,24
2023-03-21T16:37:53.342Z,24
2023-03-21T16:40:23.844Z,25
2023-03-21T16:42:54.349Z,24
2023-03-21T16:45:24.598Z,28
2023-03-21T16:48:03.656Z,32
2023-03-21T16:50:35.383Z,32
2023-03-21T16:53:05.545Z,32
2023-03-21T16:55:36.239Z,28
2023-03-21T16:58:09.892Z,28
2023-03-21T17:00:41.757Z,28
2023-03-21T17:03:12.171Z,28
2023-03-21T17:05:46.745Z,26
2023-03-21T17:08:18.988Z,28
2023-03-21T17:10:49.789Z,28
2023-03-21T17:13:26.160Z,28
2023-03-21T17:15:57.148Z,35
2023-03-21T17:18:27.457Z,40
2023-03-21T17:20:58.368Z,25
2023-03-21T17:23:28.357Z,25
2023-03-21T17:25:58.492Z,24
2023-03-21T17:28:29.848Z,29
2023-03-21T17:30:59.413Z,29
2023-03-21T17:33:30.045Z,32
2023-03-21T17:36:01.582Z,32
2023-03-21T17:38:32.186Z,32
2023-03-21T17:41:02.671Z,32
2023-03-21T17:43:33.457Z,32
2023-03-21T17:46:03.967Z,32
2023-03-21T17:48:35.939Z,32
2023-03-21T17:51:13.599Z,32
2023-03-21T17:53:46.989Z,32
2023-03-21T17:56:17.144Z,32
2023-03-21T17:58:52.944Z,32
2023-03-21T18:01:23.823Z,31
2023-03-21T18:03:54.359Z,32
2023-03-21T18:06:25.153Z,32
2023-03-21T18:08:55.868Z,28
2023-03-21T18:11:26.490Z,28
2023-03-21T18:14:15.638Z,28
2023-03-21T18:16:36.356Z,28
2023-03-21T18:19:10.445Z,29
2023-03-21T18:21:40.814Z,32
2023-03-21T18:24:12.666Z,32
2023-03-21T18:26:46.890Z,32
2023-03-21T18:32:02.771Z,32
2023-03-21T18:34:21.010Z,32
2023-03-21T18:36:55.169Z,32
2023-03-21T18:39:25.780Z,32
2023-03-21T18:41:57.933Z,32
2023-03-21T18:44:30.561Z,32
2023-03-21T18:47:01.099Z,32
2023-03-21T18:50:12.339Z,32
2023-03-21T18:52:04.063Z,32
2023-03-21T18:54:34.973Z,32
2023-03-21T18:59:39.692Z,32
2023-03-21T19:02:13.835Z,36
2023-03-21T19:04:45.721Z,32
2023-03-21T19:07:16.911Z,33
2023-03-21T19:10:15.754Z,32
2023-03-21T19:12:21.265Z,32
2023-03-21T19:14:51.694Z,33
2023-03-21T19:19:53.168Z,32
2023-03-21T19:22:24.208Z,32
2023-03-21T19:24:55.273Z,32
2023-03-21T19:27:33.062Z,32
2023-03-21T19:30:14.247Z,32
2023-03-21T19:32:42.205Z,36
2023-03-21T19:35:13.344Z,36
2023-03-21T19:37:46.229Z,32
2023-03-21T19:40:16.578Z,35
2023-03-21T19:42:46.765Z,32
2023-03-21T19:45:20.889Z,33
2023-03-21T19:47:52.872Z,35
2023-03-21T19:52:56.369Z,40
2023-03-21T19:55:27.126Z,36
2023-03-21T19:58:01.514Z,36
2023-03-21T20:00:33.288Z,32
2023-03-21T20:03:05.782Z,32
2023-03-21T20:05:34.749Z,36
2023-03-21T20:08:09.849Z,32
2023-03-21T20:10:37.039Z,33
2023-03-21T20:13:07.047Z,32
2023-03-21T20:15:45.802Z,32
2023-03-21T20:18:17.255Z,32
2023-03-21T20:20:53.762Z,32
2023-03-21T20:23:33.374Z,32
2023-03-21T20:26:08.762Z,35
2023-03-21T20:28:55.831Z,36
2023-03-21T20:31:15.540Z,40
2023-03-21T20:33:45.944Z,39
2023-03-21T20:38:45.919Z,44
2023-03-21T20:41:16.351Z,42
2023-03-21T20:46:32.891Z,44
2023-03-21T20:49:02.987Z,44
2023-03-21T20:52:29.376Z,48
2023-03-21T20:54:06.645Z,53
2023-03-21T20:56:47.157Z,54
2023-03-21T20:59:26.940Z,55
2023-03-21T21:01:53.597Z,49
2023-03-21T21:04:38.336Z,48
2023-03-21T21:06:58.540Z,48
2023-03-21T21:09:29.244Z,48
2023-03-21T21:12:06.766Z,52
2023-03-21T21:14:30.806Z,51
2023-03-21T21:17:17.505Z,52
2023-03-21T21:19:35.074Z,48
2023-03-21T21:22:06.496Z,52
2023-03-21T21:24:37.569Z,52
2023-03-21T21:27:10.212Z,52
2023-03-21T21:29:43.699Z,52
2023-03-21T21:32:12.104Z,56
2023-03-21T21:34:42.249Z,56
2023-03-21T21:37:12.146Z,55
2023-03-21T21:39:40.862Z,56
2023-03-21T21:42:11.864Z,53
2023-03-21T21:44:42.255Z,52
2023-03-21T21:47:15.359Z,54
2023-03-21T21:49:47.098Z,52
2023-03-21T21:52:19.187Z,52
2023-03-21T21:54:54.025Z,52
2023-03-21T21:57:24.951Z,52
2023-03-21T21:59:55.164Z,56
2023-03-21T22:02:26.094Z,52
2023-03-21T22:04:56.433Z,53
2023-03-21T22:07:29.959Z,49
2023-03-21T22:10:00.563Z,52
2023-03-21T22:12:32.936Z,52
2023-03-21T22:15:03.061Z,52
2023-03-21T22:17:36.444Z,52
2023-03-21T22:20:09.392Z,52
2023-03-21T22:22:39.878Z,52
2023-03-21T22:25:13.236Z,53
2023-03-21T22:27:43.614Z,53
2023-03-21T22:30:14.004Z,52
2023-03-21T22:32:47.115Z,52
2023-03-21T22:35:15.880Z,52
2023-03-21T22:37:46.187Z,48
2023-03-21T22:40:16.759Z,49
2023-03-21T22:42:47.372Z,48
2023-03-21T22:45:17.441Z,44
2023-03-21T22:47:54.826Z,45
2023-03-21T22:50:25.420Z,48
2023-03-21T22:52:58.695Z,44
2023-03-21T22:55:29.454Z,48
2023-03-21T22:57:59.551Z,44
2023-03-21T23:00:30.702Z,44
2023-03-21T23:03:01.208Z,43
2023-03-21T23:05:34.990Z,45
2023-03-21T23:08:06.086Z,42
2023-03-21T23:10:37.002Z,47
2023-03-21T23:13:09.970Z,44
2023-03-21T23:15:41.407Z,44
2023-03-21T23:18:11.603Z,39
2023-03-21T23:20:42.564Z,46
2023-03-21T23:23:12.277Z,52
2023-03-21T23:25:42.750Z,40
2023-03-21T23:28:16.197Z,41
2023-03-21T23:30:46.880Z,45
2023-03-21T23:33:18.112Z,48
2023-03-21T23:35:48.840Z,50
2023-03-21T23:38:19.621Z,44
2023-03-21T23:40:51.417Z,45
2023-03-21T23:43:26.615Z,42
2023-03-21T23:45:57.084Z,44
2023-03-21T23:48:27.316Z,44
2023-03-21T23:50:58.668Z,44
2023-03-21T23:53:29.086Z,48
2023-03-21T23:55:59.437Z,45
2023-03-21T23:58:30.594Z,48
